Terminal Aerodrome Forecast
Issued by NWS

Home | Current Version | Previous Version | Graphics & Text | Print | Product List | Glossary On
Versions: 1 2 3 4 5 6 7 8 9 10 11 12 13 14 15 16 17 18 19 20 21 22 23 24 25 26 27 28 29 30
000
FTUS43 KLOT 231700
TAFMDW
TAF
KMDW 231734Z 2318/2418 06010KT P6SM SCT250
     FM240300 08005KT P6SM SCT060 BKN080 PROB30 2405/2409 P6SM -SHRA
     FM241000 12008KT P6SM BKN070
     FM241400 14013G20KT P6SM BKN200
     FM241700 15019G28KT P6SM SCT050 BKN150=

USA.gov is the U.S. government's official web portal to all federal, state and local government web resources and services.